createdAt,value
2022-12-06T00:01:13.531Z,2.82
2022-12-06T00:03:41.199Z,2.75
2022-12-06T00:06:17.280Z,2.73
2022-12-06T00:08:44.944Z,2.66
2022-12-06T00:11:17.466Z,2.59
2022-12-06T00:13:44.502Z,2.46
2022-12-06T00:16:16.221Z,2.35
2022-12-06T00:18:44.698Z,2.53
2022-12-06T00:21:23.517Z,2.45
2022-12-06T00:23:58.033Z,2.51
2022-12-06T00:26:25.617Z,2.44
2022-12-06T00:28:54.219Z,2.38
2022-12-06T00:31:22.605Z,2.50
2022-12-06T00:33:49.910Z,2.53
2022-12-06T00:36:19.490Z,2.50
2022-12-06T00:38:46.733Z,2.50
2022-12-06T00:41:15.773Z,2.76
2022-12-06T00:43:43.145Z,2.65
2022-12-06T00:46:13.295Z,2.51
2022-12-06T00:48:40.007Z,2.65
2022-12-06T00:51:06.527Z,2.49
2022-12-06T00:53:33.048Z,2.37
2022-12-06T00:55:59.587Z,2.53
2022-12-06T00:58:26.135Z,2.45
2022-12-06T01:00:53.318Z,2.51
2022-12-06T01:03:19.969Z,2.46
2022-12-06T01:05:49.074Z,2.44
2022-12-06T01:08:16.950Z,2.49
2022-12-06T01:10:52.444Z,2.40
2022-12-06T01:13:19.249Z,2.22
2022-12-06T01:15:45.763Z,2.22
2022-12-06T01:18:12.300Z,2.42
2022-12-06T01:20:38.746Z,2.33
2022-12-06T01:23:05.256Z,2.44
2022-12-06T01:25:35.844Z,2.43
2022-12-06T01:28:02.816Z,2.24
2022-12-06T01:30:29.566Z,2.22
2022-12-06T01:32:56.289Z,2.33
2022-12-06T01:35:22.961Z,2.24
2022-12-06T01:37:49.481Z,2.17
2022-12-06T01:40:15.962Z,2.34
2022-12-06T01:42:42.433Z,2.31
2022-12-06T01:45:09.999Z,2.17
2022-12-06T01:47:42.908Z,2.15
2022-12-06T01:50:18.516Z,2.29
2022-12-06T01:52:48.113Z,2.30
2022-12-06T01:55:15.853Z,2.32
2022-12-06T01:57:43.085Z,2.30
2022-12-06T02:00:10.106Z,2.27
2022-12-06T02:02:39.589Z,2.17
2022-12-06T02:05:07.655Z,2.39
2022-12-06T02:07:34.594Z,2.19
2022-12-06T02:10:02.435Z,2.35
2022-12-06T02:12:29.073Z,2.28
2022-12-06T02:14:56.660Z,2.16
2022-12-06T02:17:44.907Z,2.20
2022-12-06T02:20:35.841Z,2.16
2022-12-06T02:23:24.777Z,2.30
2022-12-06T02:26:12.600Z,2.07
2022-12-06T02:28:51.244Z,2.26
2022-12-06T02:31:36.451Z,2.10
2022-12-06T02:34:16.259Z,2.09
2022-12-06T02:36:53.783Z,1.95
2022-12-06T02:39:30.257Z,2.11
2022-12-06T02:42:03.631Z,2.13
2022-12-06T02:44:47.216Z,2.12
2022-12-06T02:47:16.388Z,1.97
2022-12-06T02:49:47.326Z,1.94
2022-12-06T02:52:14.436Z,1.92
2022-12-06T02:54:43.932Z,1.98
2022-12-06T02:57:10.460Z,1.90
2022-12-06T02:59:36.944Z,1.78
2022-12-06T03:02:07.402Z,1.78
2022-12-06T03:04:52.681Z,1.93
2022-12-06T03:07:40.257Z,1.83
2022-12-06T03:10:33.390Z,1.84
2022-12-06T03:13:18.556Z,1.93
2022-12-06T03:15:57.906Z,1.84
2022-12-06T03:19:05.025Z,1.86
2022-12-06T03:21:33.754Z,1.86
2022-12-06T03:24:00.577Z,1.90
2022-12-06T03:26:31.568Z,1.91
2022-12-06T03:29:01.820Z,1.98
2022-12-06T03:31:32.092Z,1.87
2022-12-06T03:34:04.741Z,1.88
2022-12-06T03:36:32.374Z,1.62
2022-12-06T03:39:02.293Z,1.82
2022-12-06T03:41:35.812Z,1.93
2022-12-06T03:44:02.342Z,1.62
2022-12-06T03:46:34.632Z,1.79
2022-12-06T03:49:06.658Z,1.89
2022-12-06T03:51:36.205Z,1.87
2022-12-06T03:54:05.408Z,1.71
2022-12-06T03:56:36.686Z,1.63
2022-12-06T03:59:10.589Z,1.61
2022-12-06T04:01:38.269Z,1.66
2022-12-06T04:04:05.827Z,1.69
2022-12-06T04:06:32.637Z,1.89
2022-12-06T04:09:19.063Z,1.87
2022-12-06T04:11:46.146Z,1.76
2022-12-06T04:14:12.663Z,1.83
2022-12-06T04:16:57.800Z,1.86
2022-12-06T04:19:24.239Z,1.68
2022-12-06T04:22:08.989Z,1.70
2022-12-06T04:24:35.429Z,2.02
2022-12-06T04:27:20.604Z,1.94
2022-12-06T04:30:05.353Z,1.99
2022-12-06T04:32:50.621Z,2.02
2022-12-06T04:35:35.602Z,1.92
2022-12-06T04:38:21.016Z,2.15
2022-12-06T04:40:48.208Z,2.16
2022-12-06T04:43:33.348Z,2.07
2022-12-06T04:45:59.842Z,2.04
2022-12-06T04:48:26.450Z,2.02
2022-12-06T04:50:53.106Z,1.94
2022-12-06T04:53:19.610Z,1.81
2022-12-06T04:55:47.351Z,1.92
2022-12-06T04:58:14.841Z,1.89
2022-12-06T05:00:44.288Z,1.96
2022-12-06T05:03:12.170Z,1.77
2022-12-06T05:05:38.784Z,1.95
2022-12-06T05:08:05.734Z,2.05
2022-12-06T05:10:32.997Z,1.91
2022-12-06T05:13:00.237Z,1.92
2022-12-06T05:15:29.292Z,1.88
2022-12-06T05:17:56.423Z,1.83
2022-12-06T05:20:23.125Z,1.92
2022-12-06T05:22:49.748Z,1.84
2022-12-06T05:25:17.035Z,1.89
2022-12-06T05:27:44.763Z,2.01
2022-12-06T05:30:12.087Z,1.91
2022-12-06T05:32:40.128Z,2.03
2022-12-06T05:35:07.991Z,1.88
2022-12-06T05:37:34.489Z,1.69
2022-12-06T05:40:01.176Z,1.69
2022-12-06T05:42:27.888Z,1.82
2022-12-06T05:44:54.331Z,1.63
2022-12-06T05:47:20.793Z,1.76
2022-12-06T05:49:47.246Z,1.73
2022-12-06T05:52:13.709Z,1.87
2022-12-06T05:54:40.159Z,1.69
2022-12-06T05:57:06.622Z,1.71
2022-12-06T05:59:33.498Z,1.68
2022-12-06T06:02:00.068Z,1.96
2022-12-06T06:04:26.610Z,1.93
2022-12-06T06:06:53.246Z,1.96
2022-12-06T06:09:19.833Z,1.99
2022-12-06T06:11:46.286Z,1.91
2022-12-06T06:14:12.807Z,1.92
2022-12-06T06:16:39.329Z,2.01
2022-12-06T06:19:05.860Z,2.04
2022-12-06T06:21:32.429Z,1.94
2022-12-06T06:23:59.710Z,1.86
2022-12-06T06:26:26.159Z,1.96
2022-12-06T06:28:52.608Z,1.87
2022-12-06T06:31:19.144Z,1.90
2022-12-06T06:33:45.771Z,1.89
2022-12-06T06:36:12.238Z,1.90
2022-12-06T06:38:38.727Z,1.96
2022-12-06T06:41:06.683Z,1.88
2022-12-06T06:43:33.770Z,1.88
2022-12-06T06:46:02.687Z,1.91
2022-12-06T06:48:31.638Z,1.82
2022-12-06T06:51:24.476Z,1.81
2022-12-06T06:53:50.978Z,1.94
2022-12-06T06:56:17.485Z,1.77
2022-12-06T06:58:44.031Z,1.89
2022-12-06T07:01:17.723Z,1.63
2022-12-06T07:03:44.404Z,1.87
2022-12-06T07:06:11.983Z,1.96
2022-12-06T07:08:40.342Z,2.15
2022-12-06T07:11:07.816Z,2.11
2022-12-06T07:13:34.634Z,1.86
2022-12-06T07:16:04.268Z,1.79
2022-12-06T07:18:30.739Z,1.83
2022-12-06T07:21:03.943Z,1.86
2022-12-06T07:23:32.079Z,1.91
2022-12-06T07:26:19.852Z,1.86
2022-12-06T07:28:47.671Z,1.83
2022-12-06T07:31:26.221Z,1.81
2022-12-06T07:33:55.456Z,1.93
2022-12-06T07:36:23.241Z,1.91
2022-12-06T07:38:52.007Z,1.88
2022-12-06T07:41:39.160Z,1.94
2022-12-06T07:44:33.565Z,1.97
2022-12-06T07:47:00.776Z,2.05
2022-12-06T07:49:27.904Z,1.85
2022-12-06T07:51:55.027Z,1.79
2022-12-06T07:54:22.790Z,1.91
2022-12-06T07:56:49.280Z,1.85
2022-12-06T07:59:15.857Z,1.89
2022-12-06T08:01:43.247Z,2.13
2022-12-06T08:04:09.980Z,1.90
2022-12-06T08:06:37.058Z,1.94
2022-12-06T08:09:03.964Z,1.93
2022-12-06T08:11:30.595Z,1.93
2022-12-06T08:13:57.102Z,1.91
2022-12-06T08:16:23.717Z,2.04
2022-12-06T08:18:50.258Z,2.06
2022-12-06T08:21:17.534Z,1.95
2022-12-06T08:23:44.218Z,2.06
2022-12-06T08:26:14.265Z,2.04
2022-12-06T08:28:42.840Z,1.96
2022-12-06T08:31:12.425Z,1.87
2022-12-06T08:33:38.954Z,1.90
2022-12-06T08:36:10.994Z,1.95
2022-12-06T08:38:38.125Z,2.11
2022-12-06T08:41:31.464Z,2.34
2022-12-06T08:43:59.976Z,2.27
2022-12-06T08:46:27.642Z,2.15
2022-12-06T08:48:54.175Z,2.35
2022-12-06T08:51:21.042Z,2.19
2022-12-06T08:53:47.693Z,1.98
2022-12-06T08:56:14.502Z,2.23
2022-12-06T08:58:41.014Z,2.27
2022-12-06T09:01:12.421Z,2.40
2022-12-06T09:03:39.227Z,2.12
2022-12-06T09:06:06.243Z,2.41
2022-12-06T09:08:32.719Z,2.31
2022-12-06T09:10:59.193Z,2.61
2022-12-06T09:13:25.685Z,2.48
2022-12-06T09:15:52.202Z,2.57
2022-12-06T09:18:18.707Z,2.43
2022-12-06T09:20:45.200Z,2.69
2022-12-06T09:23:11.791Z,2.57
2022-12-06T09:25:41.206Z,2.72
2022-12-06T09:28:08.004Z,2.62
2022-12-06T09:30:34.482Z,2.74
2022-12-06T09:33:00.982Z,2.75
2022-12-06T09:35:27.475Z,2.91
2022-12-06T09:37:54.112Z,2.94
2022-12-06T09:40:31.171Z,2.90
2022-12-06T09:43:27.308Z,2.76
2022-12-06T09:46:13.582Z,2.39
2022-12-06T09:48:49.231Z,2.69
2022-12-06T09:51:38.985Z,2.86
2022-12-06T09:54:58.756Z,2.84
2022-12-06T09:57:41.913Z,2.91
2022-12-06T10:00:20.772Z,3.00
2022-12-06T10:03:04.586Z,2.90
2022-12-06T10:05:52.105Z,2.94
2022-12-06T10:08:24.950Z,2.93
2022-12-06T10:11:08.434Z,3.01
2022-12-06T10:13:44.171Z,3.02
2022-12-06T10:16:46.299Z,2.97
2022-12-06T10:19:44.890Z,3.11
2022-12-06T10:22:22.363Z,3.23
2022-12-06T10:25:17.239Z,3.01
2022-12-06T10:28:06.359Z,3.04
2022-12-06T10:30:39.862Z,2.93
2022-12-06T10:33:28.346Z,3.09
2022-12-06T10:36:01.195Z,3.16
2022-12-06T10:38:46.834Z,3.19
2022-12-06T10:41:22.360Z,3.23
2022-12-06T10:44:02.126Z,3.21
2022-12-06T10:47:01.133Z,3.05
2022-12-06T10:49:58.396Z,3.40
2022-12-06T10:52:46.529Z,3.28
2022-12-06T10:55:24.834Z,3.18
2022-12-06T10:58:09.846Z,3.23
2022-12-06T11:00:47.184Z,3.17
2022-12-06T11:03:21.211Z,2.92
2022-12-06T11:06:07.078Z,2.91
2022-12-06T11:08:48.993Z,3.04
2022-12-06T11:11:21.965Z,3.03
2022-12-06T11:13:56.519Z,3.23
2022-12-06T11:16:45.122Z,3.35
2022-12-06T11:19:34.104Z,3.44
2022-12-06T11:22:04.299Z,3.50
2022-12-06T11:24:35.299Z,3.41
2022-12-06T11:27:22.576Z,3.39
2022-12-06T11:29:50.399Z,3.45
2022-12-06T11:32:18.865Z,3.54
2022-12-06T11:34:53.927Z,3.60
2022-12-06T11:37:31.449Z,3.43
2022-12-06T11:40:26.711Z,3.36
2022-12-06T11:42:54.056Z,3.33
2022-12-06T11:45:32.547Z,3.30
2022-12-06T11:48:05.343Z,3.73
2022-12-06T11:50:35.694Z,3.63
2022-12-06T11:53:13.585Z,4.14
2022-12-06T11:55:44.057Z,4.33
2022-12-06T11:58:19.793Z,4.27
2022-12-06T12:00:58.749Z,4.14
2022-12-06T12:03:36.391Z,3.95
2022-12-06T12:06:24.066Z,3.87
2022-12-06T12:09:06.222Z,3.98
2022-12-06T12:11:36.402Z,3.94
2022-12-06T12:14:07.729Z,3.98
2022-12-06T12:16:46.432Z,3.72
2022-12-06T12:19:35.590Z,3.92
2022-12-06T12:22:34.064Z,3.83
2022-12-06T12:25:18.295Z,3.85
2022-12-06T12:27:48.539Z,3.92
2022-12-06T12:30:14.959Z,3.83
2022-12-06T12:32:42.593Z,3.79
2022-12-06T12:35:21.339Z,3.58
2022-12-06T12:37:51.251Z,3.69
2022-12-06T12:40:27.370Z,3.71
2022-12-06T12:43:05.315Z,3.61
2022-12-06T12:45:32.447Z,3.81
2022-12-06T12:48:01.638Z,3.72
2022-12-06T12:50:30.817Z,4.19
2022-12-06T12:52:57.993Z,4.10
2022-12-06T12:55:30.109Z,3.96
2022-12-06T12:57:59.081Z,3.96
2022-12-06T13:00:28.444Z,4.04
2022-12-06T13:03:14.172Z,4.20
2022-12-06T13:05:52.594Z,4.26
2022-12-06T13:08:26.967Z,3.96
2022-12-06T13:10:59.313Z,3.92
2022-12-06T13:13:31.220Z,3.92
2022-12-06T13:15:58.666Z,4.00
2022-12-06T13:18:29.998Z,3.90
2022-12-06T13:20:59.144Z,3.99
2022-12-06T13:23:31.209Z,3.85
2022-12-06T13:26:16.427Z,3.83
2022-12-06T13:28:54.560Z,3.80
2022-12-06T13:31:25.048Z,3.79
2022-12-06T13:33:56.556Z,3.80
2022-12-06T13:36:25.181Z,3.84
2022-12-06T13:38:51.761Z,3.84
2022-12-06T13:41:55.222Z,3.93
2022-12-06T13:45:00.011Z,3.68
2022-12-06T13:47:26.430Z,3.89
2022-12-06T13:50:12.636Z,3.71
2022-12-06T13:52:42.134Z,3.90
2022-12-06T13:55:23.564Z,4.02
2022-12-06T13:58:10.263Z,3.97
2022-12-06T14:00:40.093Z,3.95
2022-12-06T14:03:23.048Z,3.93
2022-12-06T14:06:12.268Z,3.97
2022-12-06T14:08:47.208Z,3.76
2022-12-06T14:11:16.995Z,4.02
2022-12-06T14:14:08.879Z,3.91
2022-12-06T14:17:00.459Z,3.76
2022-12-06T14:19:45.489Z,3.71
2022-12-06T14:22:21.025Z,3.66
2022-12-06T14:29:27.421Z,3.83
2022-12-06T14:31:53.946Z,3.72
2022-12-06T14:34:29.055Z,3.52
2022-12-06T14:36:57.472Z,3.39
2022-12-06T14:39:27.559Z,3.58
2022-12-06T14:42:16.114Z,3.59
2022-12-06T14:44:57.390Z,3.71
2022-12-06T14:47:28.526Z,3.58
2022-12-06T14:50:16.701Z,3.59
2022-12-06T14:53:16.485Z,3.53
2022-12-06T14:55:57.998Z,3.59
2022-12-06T14:58:36.988Z,3.60
2022-12-06T15:01:24.222Z,3.53
2022-12-06T15:04:06.202Z,3.52
2022-12-06T15:06:35.394Z,3.53
2022-12-06T15:09:01.733Z,3.52
2022-12-06T15:11:52.671Z,3.49
2022-12-06T15:14:23.102Z,3.56
2022-12-06T15:17:02.204Z,3.48
2022-12-06T15:19:40.334Z,3.47
2022-12-06T15:22:24.349Z,3.38
2022-12-06T15:24:54.624Z,3.30
2022-12-06T15:27:23.148Z,3.28
2022-12-06T15:29:50.299Z,3.27
2022-12-06T15:32:19.368Z,3.26
2022-12-06T15:34:46.557Z,3.24
2022-12-06T15:37:38.269Z,3.28
2022-12-06T15:40:02.020Z,3.27
2022-12-06T15:42:28.672Z,3.29
2022-12-06T15:44:55.309Z,3.14
2022-12-06T15:47:21.791Z,3.20
2022-12-06T15:49:50.862Z,3.13
2022-12-06T15:52:19.768Z,3.17
2022-12-06T15:54:46.285Z,3.05
2022-12-06T15:57:12.813Z,3.04
2022-12-06T15:59:39.209Z,2.86
2022-12-06T16:02:15.273Z,2.98
2022-12-06T16:04:41.996Z,2.94
2022-12-06T16:07:08.869Z,2.77
2022-12-06T16:09:35.294Z,2.51
2022-12-06T16:12:01.717Z,2.60
2022-12-06T16:14:28.148Z,2.82
2022-12-06T16:16:54.591Z,2.78
2022-12-06T16:19:21.036Z,2.98
2022-12-06T16:21:56.191Z,3.03
2022-12-06T16:24:23.015Z,3.01
2022-12-06T16:26:49.617Z,2.98
2022-12-06T16:29:25.012Z,2.77
2022-12-06T16:31:53.088Z,2.84
2022-12-06T16:34:20.200Z,2.72
2022-12-06T16:37:08.995Z,2.83
2022-12-06T16:39:35.688Z,2.89
2022-12-06T16:42:03.889Z,2.89
2022-12-06T16:44:30.400Z,2.88
2022-12-06T16:46:57.357Z,2.96
2022-12-06T16:49:45.945Z,2.76
2022-12-06T16:52:14.283Z,2.70
2022-12-06T16:54:41.682Z,2.89
2022-12-06T16:57:09.927Z,2.90
2022-12-06T16:59:36.760Z,2.75
2022-12-06T17:02:06.015Z,2.90
2022-12-06T17:04:34.958Z,2.85
2022-12-06T17:07:01.380Z,2.86
2022-12-06T17:09:27.818Z,2.79
2022-12-06T17:12:03.461Z,2.92
2022-12-06T17:14:30.186Z,2.83
2022-12-06T17:16:57.124Z,2.85
2022-12-06T17:19:28.754Z,2.67
2022-12-06T17:21:55.510Z,2.66
2022-12-06T17:24:25.496Z,2.56
2022-12-06T17:26:54.039Z,2.49
2022-12-06T17:29:20.888Z,2.64
2022-12-06T17:31:47.442Z,2.80
2022-12-06T17:34:14.667Z,2.86
2022-12-06T17:36:42.285Z,2.50
2022-12-06T17:39:10.655Z,2.59
2022-12-06T17:41:55.851Z,2.80
2022-12-06T17:44:22.352Z,2.91
2022-12-06T17:46:48.814Z,2.86
2022-12-06T17:49:21.857Z,2.93
2022-12-06T17:51:48.407Z,2.86
2022-12-06T17:54:15.599Z,2.87
2022-12-06T17:56:47.626Z,2.76
2022-12-06T17:59:25.792Z,2.77
2022-12-06T18:04:40.527Z,2.75
2022-12-06T18:07:07.168Z,2.42
2022-12-06T18:09:33.682Z,2.46
2022-12-06T18:12:01.063Z,2.58
2022-12-06T18:14:28.186Z,2.36
2022-12-06T18:16:54.754Z,2.62
2022-12-06T18:19:22.787Z,2.55
2022-12-06T18:21:49.659Z,2.25
2022-12-06T18:24:22.497Z,2.40
2022-12-06T18:26:50.028Z,2.25
2022-12-06T18:29:20.026Z,2.32
2022-12-06T18:31:47.062Z,2.21
2022-12-06T18:34:13.754Z,2.28
2022-12-06T18:36:40.962Z,2.42
2022-12-06T18:39:14.455Z,2.38
2022-12-06T18:41:42.503Z,2.60
2022-12-06T18:44:10.143Z,2.47
2022-12-06T18:46:38.637Z,2.27
2022-12-06T18:49:05.430Z,2.23
2022-12-06T18:51:34.327Z,2.41
2022-12-06T18:54:03.061Z,2.56
2022-12-06T18:56:30.186Z,2.60
2022-12-06T18:59:01.480Z,2.52
2022-12-06T19:01:30.644Z,2.64
2022-12-06T19:04:03.229Z,2.37
2022-12-06T19:06:35.441Z,2.60
2022-12-06T19:09:07.927Z,2.68
2022-12-06T19:11:42.947Z,2.56
2022-12-06T19:14:10.183Z,2.18
2022-12-06T19:16:41.560Z,2.20
2022-12-06T19:19:16.228Z,2.14
2022-12-06T19:21:44.623Z,2.00
2022-12-06T19:24:12.170Z,1.98
2022-12-06T19:26:38.685Z,1.89
2022-12-06T19:29:05.776Z,1.85
2022-12-06T19:31:33.148Z,1.95
2022-12-06T19:33:59.850Z,1.86
2022-12-06T19:36:28.824Z,1.86
2022-12-06T19:39:05.960Z,1.87
2022-12-06T19:54:33.589Z,1.90
2022-12-06T19:57:01.109Z,1.90
2022-12-06T19:59:30.200Z,2.06
2022-12-06T20:01:58.333Z,2.19
2022-12-06T20:04:31.343Z,1.92
2022-12-06T20:06:58.797Z,1.86
2022-12-06T20:09:27.372Z,1.85
2022-12-06T20:12:01.464Z,1.94
2022-12-06T20:14:41.330Z,1.98
2022-12-06T20:17:11.553Z,2.09
2022-12-06T20:19:38.786Z,2.00
2022-12-06T20:22:05.308Z,1.98
2022-12-06T20:24:31.977Z,1.96
2022-12-06T20:26:58.476Z,2.04
2022-12-06T20:29:26.968Z,1.92
2022-12-06T20:31:56.011Z,1.84
2022-12-06T20:34:22.444Z,2.01
2022-12-06T20:36:48.847Z,1.95
2022-12-06T20:39:24.689Z,1.92
2022-12-06T20:41:51.555Z,2.06
2022-12-06T20:44:19.107Z,2.18
2022-12-06T20:46:47.695Z,1.91
2022-12-06T20:49:16.044Z,1.95
2022-12-06T20:51:42.798Z,2.09
2022-12-06T20:54:11.463Z,2.09
2022-12-06T20:56:39.351Z,1.80
2022-12-06T20:59:07.738Z,1.78
2022-12-06T21:01:37.126Z,1.78
2022-12-06T21:04:03.724Z,1.98
2022-12-06T21:06:30.221Z,1.95
2022-12-06T21:08:56.680Z,1.76
2022-12-06T21:11:25.033Z,1.65
2022-12-06T21:13:53.633Z,1.67
2022-12-06T21:16:27.216Z,1.82
2022-12-06T21:18:55.891Z,2.10
2022-12-06T21:21:28.492Z,2.16
2022-12-06T21:23:57.932Z,2.13
2022-12-06T21:26:24.347Z,2.23
2022-12-06T21:28:52.720Z,1.95
2022-12-06T21:31:19.442Z,2.10
2022-12-06T21:33:46.060Z,2.04
2022-12-06T21:36:12.567Z,1.77
2022-12-06T21:38:39.063Z,1.84
2022-12-06T21:41:13.550Z,1.59
2022-12-06T21:43:40.057Z,1.73
2022-12-06T21:46:21.096Z,1.72
2022-12-06T21:48:58.383Z,1.77
2022-12-06T21:51:31.131Z,1.81
2022-12-06T21:53:58.708Z,1.68
2022-12-06T21:56:29.635Z,1.89
2022-12-06T21:58:56.256Z,1.91
2022-12-06T22:01:24.956Z,1.93
2022-12-06T22:03:53.598Z,1.64
2022-12-06T22:06:21.037Z,1.56
2022-12-06T22:08:49.139Z,1.48
2022-12-06T22:11:18.603Z,1.46
2022-12-06T22:13:46.300Z,1.79
2022-12-06T22:16:13.366Z,1.60
2022-12-06T22:18:45.390Z,1.93
2022-12-06T22:21:19.811Z,2.08
2022-12-06T22:23:47.659Z,1.84
2022-12-06T22:26:17.693Z,1.46
2022-12-06T22:28:44.493Z,1.54
2022-12-06T22:31:17.196Z,1.62
2022-12-06T22:33:43.760Z,1.62
2022-12-06T22:36:11.613Z,1.51
2022-12-06T22:38:38.452Z,1.64
2022-12-06T22:41:06.063Z,1.77
2022-12-06T22:43:33.447Z,1.65
2022-12-06T22:46:09.838Z,1.66
2022-12-06T22:48:37.295Z,1.81
2022-12-06T22:51:27.595Z,1.94
2022-12-06T22:53:56.920Z,1.90
2022-12-06T22:56:24.688Z,1.81
2022-12-06T22:58:55.519Z,1.71
2022-12-06T23:01:24.166Z,1.52
2022-12-06T23:03:52.091Z,1.53
2022-12-06T23:06:21.153Z,1.38
2022-12-06T23:08:48.191Z,1.36
2022-12-06T23:11:17.715Z,1.72
2022-12-06T23:13:44.833Z,1.56
2022-12-06T23:16:14.569Z,1.63
2022-12-06T23:18:41.829Z,1.28
2022-12-06T23:21:14.971Z,1.20
2022-12-06T23:23:44.824Z,1.31
2022-12-06T23:26:13.542Z,1.54
2022-12-06T23:28:40.298Z,1.55
2022-12-06T23:31:23.496Z,1.43
2022-12-06T23:33:54.899Z,1.73
2022-12-06T23:36:27.032Z,1.56
2022-12-06T23:38:53.661Z,1.71
2022-12-06T23:41:22.465Z,1.43
2022-12-06T23:43:49.438Z,1.41
2022-12-06T23:46:22.195Z,1.32
2022-12-06T23:48:49.485Z,1.27
2022-12-06T23:51:18.562Z,1.54
2022-12-06T23:53:49.165Z,1.70
2022-12-06T23:56:17.507Z,1.85
2022-12-06T23:58:45.441Z,1.85
